sensor_id;sensor_type;location;lat;lon;timestamp;P1;durP1;ratioP1;P2;durP2;ratioP2
5285;SDS011;2665;53.112;7.358;2022-10-31T00:01:12;13.37;;;6.30;;
5285;SDS011;2665;53.112;7.358;2022-10-31T00:03:43;13.13;;;7.20;;
5285;SDS011;2665;53.112;7.358;2022-10-31T00:06:08;14.10;;;6.20;;
5285;SDS011;2665;53.112;7.358;2022-10-31T00:08:34;13.90;;;5.90;;
5285;SDS011;2665;53.112;7.358;2022-10-31T00:11:00;9.93;;;6.43;;
5285;SDS011;2665;53.112;7.358;2022-10-31T00:13:26;8.77;;;5.17;;
5285;SDS011;2665;53.112;7.358;2022-10-31T00:15:51;16.90;;;6.30;;
5285;SDS011;2665;53.112;7.358;2022-10-31T00:18:17;11.30;;;5.70;;
5285;SDS011;2665;53.112;7.358;2022-10-31T00:20:43;17.50;;;8.33;;
5285;SDS011;2665;53.112;7.358;2022-10-31T00:23:08;12.80;;;7.03;;
5285;SDS011;2665;53.112;7.358;2022-10-31T00:25:36;13.00;;;6.53;;
5285;SDS011;2665;53.112;7.358;2022-10-31T00:28:04;11.27;;;6.20;;
5285;SDS011;2665;53.112;7.358;2022-10-31T00:30:31;12.40;;;6.43;;
5285;SDS011;2665;53.112;7.358;2022-10-31T00:32:57;18.20;;;6.00;;
5285;SDS011;2665;53.112;7.358;2022-10-31T00:35:23;12.03;;;7.07;;
5285;SDS011;2665;53.112;7.358;2022-10-31T00:37:48;16.73;;;6.07;;
5285;SDS011;2665;53.112;7.358;2022-10-31T00:40:14;14.93;;;6.03;;
5285;SDS011;2665;53.112;7.358;2022-10-31T00:42:40;10.53;;;5.93;;
5285;SDS011;2665;53.112;7.358;2022-10-31T00:45:07;11.63;;;6.00;;
5285;SDS011;2665;53.112;7.358;2022-10-31T00:47:36;8.80;;;5.30;;
5285;SDS011;2665;53.112;7.358;2022-10-31T00:50:02;18.70;;;7.87;;
5285;SDS011;2665;53.112;7.358;2022-10-31T00:52:32;16.00;;;6.13;;
5285;SDS011;2665;53.112;7.358;2022-10-31T00:54:58;9.73;;;5.87;;
5285;SDS011;2665;53.112;7.358;2022-10-31T00:57:23;17.57;;;6.80;;
5285;SDS011;2665;53.112;7.358;2022-10-31T00:59:49;13.23;;;7.43;;
5285;SDS011;2665;53.112;7.358;2022-10-31T01:02:14;9.50;;;6.43;;
5285;SDS011;2665;53.112;7.358;2022-10-31T01:04:40;16.57;;;6.60;;
5285;SDS011;2665;53.112;7.358;2022-10-31T01:07:06;13.67;;;6.70;;
5285;SDS011;2665;53.112;7.358;2022-10-31T01:09:32;16.40;;;7.17;;
5285;SDS011;2665;53.112;7.358;2022-10-31T01:11:57;16.67;;;6.07;;
5285;SDS011;2665;53.112;7.358;2022-10-31T01:14:23;12.90;;;6.20;;
5285;SDS011;2665;53.112;7.358;2022-10-31T01:16:48;11.00;;;6.00;;
5285;SDS011;2665;53.112;7.358;2022-10-31T01:19:14;6.57;;;4.90;;
5285;SDS011;2665;53.112;7.358;2022-10-31T01:21:39;11.53;;;6.90;;
5285;SDS011;2665;53.112;7.358;2022-10-31T01:24:05;11.07;;;5.37;;
5285;SDS011;2665;53.112;7.358;2022-10-31T01:26:31;7.97;;;4.33;;
5285;SDS011;2665;53.112;7.358;2022-10-31T01:29:02;8.13;;;4.60;;
5285;SDS011;2665;53.112;7.358;2022-10-31T01:31:31;10.43;;;7.37;;
5285;SDS011;2665;53.112;7.358;2022-10-31T01:33:58;9.73;;;4.87;;
5285;SDS011;2665;53.112;7.358;2022-10-31T01:38:50;7.10;;;4.73;;
5285;SDS011;2665;53.112;7.358;2022-10-31T01:41:18;8.07;;;5.20;;
5285;SDS011;2665;53.112;7.358;2022-10-31T01:46:25;6.67;;;4.10;;
5285;SDS011;2665;53.112;7.358;2022-10-31T01:48:53;10.43;;;5.60;;
5285;SDS011;2665;53.112;7.358;2022-10-31T01:51:20;7.90;;;4.30;;
5285;SDS011;2665;53.112;7.358;2022-10-31T01:53:50;12.60;;;5.50;;
5285;SDS011;2665;53.112;7.358;2022-10-31T01:56:19;9.23;;;4.20;;
5285;SDS011;2665;53.112;7.358;2022-10-31T01:58:46;8.60;;;5.70;;
5285;SDS011;2665;53.112;7.358;2022-10-31T02:01:11;11.70;;;4.97;;
5285;SDS011;2665;53.112;7.358;2022-10-31T02:03:38;11.00;;;5.10;;
5285;SDS011;2665;53.112;7.358;2022-10-31T02:06:05;13.77;;;6.47;;
5285;SDS011;2665;53.112;7.358;2022-10-31T02:08:35;9.57;;;5.30;;
5285;SDS011;2665;53.112;7.358;2022-10-31T02:11:04;10.10;;;5.23;;
5285;SDS011;2665;53.112;7.358;2022-10-31T02:13:32;8.47;;;5.73;;
5285;SDS011;2665;53.112;7.358;2022-10-31T02:15:59;12.33;;;6.20;;
5285;SDS011;2665;53.112;7.358;2022-10-31T02:18:27;8.77;;;4.70;;
5285;SDS011;2665;53.112;7.358;2022-10-31T02:31:25;12.70;;;5.80;;
5285;SDS011;2665;53.112;7.358;2022-10-31T02:39:26;12.00;;;5.57;;
5285;SDS011;2665;53.112;7.358;2022-10-31T02:42:03;13.63;;;6.33;;
5285;SDS011;2665;53.112;7.358;2022-10-31T02:47:08;9.70;;;5.97;;
5285;SDS011;2665;53.112;7.358;2022-10-31T02:49:40;12.10;;;6.37;;
5285;SDS011;2665;53.112;7.358;2022-10-31T02:52:14;13.00;;;7.33;;
5285;SDS011;2665;53.112;7.358;2022-10-31T02:54:43;10.83;;;6.50;;
5285;SDS011;2665;53.112;7.358;2022-10-31T02:57:10;18.03;;;7.67;;
5285;SDS011;2665;53.112;7.358;2022-10-31T02:59:37;8.97;;;5.90;;
5285;SDS011;2665;53.112;7.358;2022-10-31T03:12:40;18.67;;;7.97;;
5285;SDS011;2665;53.112;7.358;2022-10-31T03:15:24;15.67;;;6.73;;
5285;SDS011;2665;53.112;7.358;2022-10-31T03:18:13;13.50;;;7.00;;
5285;SDS011;2665;53.112;7.358;2022-10-31T03:20:58;12.70;;;5.73;;
5285;SDS011;2665;53.112;7.358;2022-10-31T03:23:31;14.57;;;6.93;;
5285;SDS011;2665;53.112;7.358;2022-10-31T03:26:00;12.53;;;7.17;;
5285;SDS011;2665;53.112;7.358;2022-10-31T03:28:28;8.70;;;5.30;;
5285;SDS011;2665;53.112;7.358;2022-10-31T03:30:58;10.10;;;5.90;;
5285;SDS011;2665;53.112;7.358;2022-10-31T03:33:26;10.33;;;6.30;;
5285;SDS011;2665;53.112;7.358;2022-10-31T03:35:55;18.47;;;8.70;;
5285;SDS011;2665;53.112;7.358;2022-10-31T03:38:25;14.07;;;7.93;;
5285;SDS011;2665;53.112;7.358;2022-10-31T03:40:51;9.50;;;4.87;;
5285;SDS011;2665;53.112;7.358;2022-10-31T03:43:21;13.07;;;7.00;;
5285;SDS011;2665;53.112;7.358;2022-10-31T03:45:51;11.60;;;7.17;;
5285;SDS011;2665;53.112;7.358;2022-10-31T03:48:18;16.93;;;8.17;;
5285;SDS011;2665;53.112;7.358;2022-10-31T03:53:16;12.60;;;7.77;;
5285;SDS011;2665;53.112;7.358;2022-10-31T03:55:50;14.00;;;6.83;;
5285;SDS011;2665;53.112;7.358;2022-10-31T03:58:29;11.70;;;6.47;;
5285;SDS011;2665;53.112;7.358;2022-10-31T04:01:02;10.90;;;6.77;;
5285;SDS011;2665;53.112;7.358;2022-10-31T04:03:30;8.47;;;5.30;;
5285;SDS011;2665;53.112;7.358;2022-10-31T04:06:00;13.30;;;6.93;;
5285;SDS011;2665;53.112;7.358;2022-10-31T04:08:31;11.43;;;7.03;;
5285;SDS011;2665;53.112;7.358;2022-10-31T04:11:01;11.00;;;6.87;;
5285;SDS011;2665;53.112;7.358;2022-10-31T04:13:29;11.70;;;5.90;;
5285;SDS011;2665;53.112;7.358;2022-10-31T04:15:58;10.03;;;5.70;;
5285;SDS011;2665;53.112;7.358;2022-10-31T04:18:24;13.10;;;6.17;;
5285;SDS011;2665;53.112;7.358;2022-10-31T04:20:58;10.13;;;6.40;;
5285;SDS011;2665;53.112;7.358;2022-10-31T04:23:26;9.47;;;6.30;;
5285;SDS011;2665;53.112;7.358;2022-10-31T04:25:52;11.87;;;6.10;;
5285;SDS011;2665;53.112;7.358;2022-10-31T04:28:18;12.53;;;6.43;;
5285;SDS011;2665;53.112;7.358;2022-10-31T04:30:44;16.60;;;7.70;;
5285;SDS011;2665;53.112;7.358;2022-10-31T04:33:09;12.77;;;5.50;;
5285;SDS011;2665;53.112;7.358;2022-10-31T04:35:35;9.60;;;5.97;;
5285;SDS011;2665;53.112;7.358;2022-10-31T04:38:01;13.93;;;6.87;;
5285;SDS011;2665;53.112;7.358;2022-10-31T04:40:26;7.87;;;5.30;;
5285;SDS011;2665;53.112;7.358;2022-10-31T04:42:52;10.40;;;6.27;;
5285;SDS011;2665;53.112;7.358;2022-10-31T04:45:17;8.80;;;5.30;;
5285;SDS011;2665;53.112;7.358;2022-10-31T04:47:43;13.60;;;5.80;;
5285;SDS011;2665;53.112;7.358;2022-10-31T04:50:09;9.67;;;5.50;;
5285;SDS011;2665;53.112;7.358;2022-10-31T04:52:41;11.57;;;6.20;;
5285;SDS011;2665;53.112;7.358;2022-10-31T04:55:07;19.13;;;6.00;;
5285;SDS011;2665;53.112;7.358;2022-10-31T04:57:40;10.47;;;6.20;;
5285;SDS011;2665;53.112;7.358;2022-10-31T05:00:13;10.00;;;6.53;;
5285;SDS011;2665;53.112;7.358;2022-10-31T05:02:47;9.60;;;5.50;;
5285;SDS011;2665;53.112;7.358;2022-10-31T05:05:16;8.40;;;4.93;;
5285;SDS011;2665;53.112;7.358;2022-10-31T05:07:44;13.40;;;6.67;;
5285;SDS011;2665;53.112;7.358;2022-10-31T05:10:12;11.43;;;7.40;;
5285;SDS011;2665;53.112;7.358;2022-10-31T05:12:47;13.20;;;6.37;;
5285;SDS011;2665;53.112;7.358;2022-10-31T05:15:23;17.60;;;7.20;;
5285;SDS011;2665;53.112;7.358;2022-10-31T05:17:50;11.80;;;6.70;;
5285;SDS011;2665;53.112;7.358;2022-10-31T05:20:17;11.93;;;5.73;;
5285;SDS011;2665;53.112;7.358;2022-10-31T05:22:45;12.13;;;5.90;;
5285;SDS011;2665;53.112;7.358;2022-10-31T05:25:12;9.87;;;5.63;;
5285;SDS011;2665;53.112;7.358;2022-10-31T05:27:38;14.23;;;7.40;;
5285;SDS011;2665;53.112;7.358;2022-10-31T05:30:05;10.97;;;6.33;;
5285;SDS011;2665;53.112;7.358;2022-10-31T05:32:44;12.73;;;7.83;;
5285;SDS011;2665;53.112;7.358;2022-10-31T05:35:13;14.63;;;7.43;;
5285;SDS011;2665;53.112;7.358;2022-10-31T05:37:42;8.20;;;5.60;;
5285;SDS011;2665;53.112;7.358;2022-10-31T05:40:09;12.90;;;7.87;;
5285;SDS011;2665;53.112;7.358;2022-10-31T05:42:37;13.37;;;6.90;;
5285;SDS011;2665;53.112;7.358;2022-10-31T05:45:07;14.07;;;6.87;;
5285;SDS011;2665;53.112;7.358;2022-10-31T05:47:34;11.23;;;6.80;;
5285;SDS011;2665;53.112;7.358;2022-10-31T05:49:59;17.37;;;9.23;;
5285;SDS011;2665;53.112;7.358;2022-10-31T05:52:25;14.87;;;9.37;;
5285;SDS011;2665;53.112;7.358;2022-10-31T05:54:51;13.20;;;8.23;;
5285;SDS011;2665;53.112;7.358;2022-10-31T05:57:16;16.10;;;8.67;;
5285;SDS011;2665;53.112;7.358;2022-10-31T05:59:42;14.33;;;9.53;;
5285;SDS011;2665;53.112;7.358;2022-10-31T06:02:07;13.93;;;7.13;;
5285;SDS011;2665;53.112;7.358;2022-10-31T06:04:33;14.20;;;8.73;;
5285;SDS011;2665;53.112;7.358;2022-10-31T06:06:58;11.27;;;7.27;;
5285;SDS011;2665;53.112;7.358;2022-10-31T06:09:24;13.40;;;7.27;;
5285;SDS011;2665;53.112;7.358;2022-10-31T06:11:49;16.33;;;7.47;;
5285;SDS011;2665;53.112;7.358;2022-10-31T06:14:15;9.93;;;6.23;;
5285;SDS011;2665;53.112;7.358;2022-10-31T06:16:41;14.03;;;7.37;;
5285;SDS011;2665;53.112;7.358;2022-10-31T06:19:06;15.17;;;8.70;;
5285;SDS011;2665;53.112;7.358;2022-10-31T06:21:32;13.90;;;8.43;;
5285;SDS011;2665;53.112;7.358;2022-10-31T06:23:57;19.37;;;9.17;;
5285;SDS011;2665;53.112;7.358;2022-10-31T06:26:23;12.97;;;8.80;;
5285;SDS011;2665;53.112;7.358;2022-10-31T06:28:48;14.30;;;9.43;;
5285;SDS011;2665;53.112;7.358;2022-10-31T06:31:14;15.80;;;9.03;;
5285;SDS011;2665;53.112;7.358;2022-10-31T06:33:43;14.43;;;8.93;;
5285;SDS011;2665;53.112;7.358;2022-10-31T06:36:09;15.07;;;9.80;;
5285;SDS011;2665;53.112;7.358;2022-10-31T06:38:35;13.77;;;9.30;;
5285;SDS011;2665;53.112;7.358;2022-10-31T06:41:04;19.40;;;9.80;;
5285;SDS011;2665;53.112;7.358;2022-10-31T06:43:30;15.77;;;7.70;;
5285;SDS011;2665;53.112;7.358;2022-10-31T06:45:57;12.13;;;8.00;;
5285;SDS011;2665;53.112;7.358;2022-10-31T06:48:22;10.70;;;7.40;;
5285;SDS011;2665;53.112;7.358;2022-10-31T06:50:48;10.63;;;6.10;;
5285;SDS011;2665;53.112;7.358;2022-10-31T06:53:14;8.97;;;4.90;;
5285;SDS011;2665;53.112;7.358;2022-10-31T06:55:40;17.67;;;7.57;;
5285;SDS011;2665;53.112;7.358;2022-10-31T06:58:06;10.00;;;6.83;;
5285;SDS011;2665;53.112;7.358;2022-10-31T07:00:34;12.27;;;7.23;;
5285;SDS011;2665;53.112;7.358;2022-10-31T07:03:00;10.37;;;5.90;;
5285;SDS011;2665;53.112;7.358;2022-10-31T07:05:28;12.97;;;7.53;;
5285;SDS011;2665;53.112;7.358;2022-10-31T07:07:58;10.80;;;6.70;;
5285;SDS011;2665;53.112;7.358;2022-10-31T07:10:25;9.23;;;5.90;;
5285;SDS011;2665;53.112;7.358;2022-10-31T07:12:53;7.80;;;5.77;;
5285;SDS011;2665;53.112;7.358;2022-10-31T07:15:20;10.20;;;6.60;;
5285;SDS011;2665;53.112;7.358;2022-10-31T07:17:46;7.10;;;4.87;;
5285;SDS011;2665;53.112;7.358;2022-10-31T07:20:11;9.07;;;6.23;;
5285;SDS011;2665;53.112;7.358;2022-10-31T07:22:37;9.53;;;5.50;;
5285;SDS011;2665;53.112;7.358;2022-10-31T07:25:02;8.13;;;4.50;;
5285;SDS011;2665;53.112;7.358;2022-10-31T07:27:28;11.80;;;7.30;;
5285;SDS011;2665;53.112;7.358;2022-10-31T07:30:00;18.97;;;10.00;;
5285;SDS011;2665;53.112;7.358;2022-10-31T07:32:25;15.47;;;7.87;;
5285;SDS011;2665;53.112;7.358;2022-10-31T07:34:51;12.00;;;7.20;;
5285;SDS011;2665;53.112;7.358;2022-10-31T07:37:16;12.70;;;8.20;;
5285;SDS011;2665;53.112;7.358;2022-10-31T07:39:42;11.10;;;7.40;;
5285;SDS011;2665;53.112;7.358;2022-10-31T07:42:07;6.57;;;4.60;;
5285;SDS011;2665;53.112;7.358;2022-10-31T07:44:33;10.73;;;5.83;;
5285;SDS011;2665;53.112;7.358;2022-10-31T07:46:59;10.83;;;6.90;;
5285;SDS011;2665;53.112;7.358;2022-10-31T07:49:24;12.17;;;7.60;;
5285;SDS011;2665;53.112;7.358;2022-10-31T07:51:50;9.77;;;7.33;;
5285;SDS011;2665;53.112;7.358;2022-10-31T07:54:16;10.37;;;7.10;;
5285;SDS011;2665;53.112;7.358;2022-10-31T07:56:41;8.70;;;6.33;;
5285;SDS011;2665;53.112;7.358;2022-10-31T07:59:07;8.20;;;7.17;;
5285;SDS011;2665;53.112;7.358;2022-10-31T08:01:32;8.03;;;6.63;;
5285;SDS011;2665;53.112;7.358;2022-10-31T08:03:58;9.80;;;7.37;;
5285;SDS011;2665;53.112;7.358;2022-10-31T08:06:23;6.80;;;5.27;;
5285;SDS011;2665;53.112;7.358;2022-10-31T08:08:49;10.53;;;6.73;;
5285;SDS011;2665;53.112;7.358;2022-10-31T08:11:15;8.77;;;7.13;;
5285;SDS011;2665;53.112;7.358;2022-10-31T08:13:40;10.87;;;7.77;;
5285;SDS011;2665;53.112;7.358;2022-10-31T08:16:07;8.77;;;7.10;;
5285;SDS011;2665;53.112;7.358;2022-10-31T08:18:33;8.20;;;6.13;;
5285;SDS011;2665;53.112;7.358;2022-10-31T08:20:58;11.50;;;8.27;;
5285;SDS011;2665;53.112;7.358;2022-10-31T08:23:24;14.83;;;7.60;;
5285;SDS011;2665;53.112;7.358;2022-10-31T08:25:49;11.20;;;8.53;;
5285;SDS011;2665;53.112;7.358;2022-10-31T08:28:15;12.90;;;9.17;;
5285;SDS011;2665;53.112;7.358;2022-10-31T08:30:41;11.27;;;8.40;;
5285;SDS011;2665;53.112;7.358;2022-10-31T08:33:10;13.43;;;9.30;;
5285;SDS011;2665;53.112;7.358;2022-10-31T08:35:37;12.83;;;8.57;;
5285;SDS011;2665;53.112;7.358;2022-10-31T08:38:04;12.23;;;8.70;;
5285;SDS011;2665;53.112;7.358;2022-10-31T08:40:30;10.93;;;8.10;;
5285;SDS011;2665;53.112;7.358;2022-10-31T08:43:01;14.50;;;9.30;;
5285;SDS011;2665;53.112;7.358;2022-10-31T08:45:29;14.50;;;9.47;;
5285;SDS011;2665;53.112;7.358;2022-10-31T08:47:59;13.00;;;8.43;;
5285;SDS011;2665;53.112;7.358;2022-10-31T08:50:25;17.40;;;10.33;;
5285;SDS011;2665;53.112;7.358;2022-10-31T08:52:53;16.80;;;10.20;;
5285;SDS011;2665;53.112;7.358;2022-10-31T08:55:18;15.40;;;9.97;;
5285;SDS011;2665;53.112;7.358;2022-10-31T08:57:44;11.57;;;8.73;;
5285;SDS011;2665;53.112;7.358;2022-10-31T09:00:10;13.00;;;7.80;;
5285;SDS011;2665;53.112;7.358;2022-10-31T09:02:36;13.37;;;9.10;;
5285;SDS011;2665;53.112;7.358;2022-10-31T09:05:03;13.97;;;10.60;;
5285;SDS011;2665;53.112;7.358;2022-10-31T09:07:29;15.47;;;10.30;;
5285;SDS011;2665;53.112;7.358;2022-10-31T09:09:55;14.20;;;9.87;;
5285;SDS011;2665;53.112;7.358;2022-10-31T09:12:21;12.97;;;8.57;;
5285;SDS011;2665;53.112;7.358;2022-10-31T09:14:48;13.30;;;7.50;;
5285;SDS011;2665;53.112;7.358;2022-10-31T09:17:14;13.83;;;7.03;;
5285;SDS011;2665;53.112;7.358;2022-10-31T09:19:40;10.93;;;6.10;;
5285;SDS011;2665;53.112;7.358;2022-10-31T09:22:05;10.93;;;5.70;;
5285;SDS011;2665;53.112;7.358;2022-10-31T09:24:31;12.30;;;7.03;;
5285;SDS011;2665;53.112;7.358;2022-10-31T09:26:58;9.03;;;6.70;;
5285;SDS011;2665;53.112;7.358;2022-10-31T09:29:23;10.17;;;6.87;;
5285;SDS011;2665;53.112;7.358;2022-10-31T09:31:49;13.00;;;6.10;;
5285;SDS011;2665;53.112;7.358;2022-10-31T09:34:15;9.07;;;6.43;;
5285;SDS011;2665;53.112;7.358;2022-10-31T09:36:40;9.50;;;7.17;;
5285;SDS011;2665;53.112;7.358;2022-10-31T09:39:07;8.87;;;5.40;;
5285;SDS011;2665;53.112;7.358;2022-10-31T09:47:24;8.97;;;6.07;;
5285;SDS011;2665;53.112;7.358;2022-10-31T09:52:43;8.97;;;4.83;;
5285;SDS011;2665;53.112;7.358;2022-10-31T09:55:17;8.20;;;4.60;;
5285;SDS011;2665;53.112;7.358;2022-10-31T09:57:51;7.40;;;3.70;;
5285;SDS011;2665;53.112;7.358;2022-10-31T10:00:19;5.93;;;4.10;;
5285;SDS011;2665;53.112;7.358;2022-10-31T10:05:41;9.03;;;5.60;;
5285;SDS011;2665;53.112;7.358;2022-10-31T10:08:18;8.60;;;5.93;;
5285;SDS011;2665;53.112;7.358;2022-10-31T10:10:49;9.47;;;6.70;;
5285;SDS011;2665;53.112;7.358;2022-10-31T10:13:33;8.10;;;5.40;;
5285;SDS011;2665;53.112;7.358;2022-10-31T10:22:20;9.90;;;6.13;;
5285;SDS011;2665;53.112;7.358;2022-10-31T10:30:28;13.00;;;6.30;;
5285;SDS011;2665;53.112;7.358;2022-10-31T10:33:00;11.87;;;6.50;;
5285;SDS011;2665;53.112;7.358;2022-10-31T10:35:34;8.57;;;5.77;;
5285;SDS011;2665;53.112;7.358;2022-10-31T10:40:40;10.77;;;6.37;;
5285;SDS011;2665;53.112;7.358;2022-10-31T10:56:30;13.87;;;7.10;;
5285;SDS011;2665;53.112;7.358;2022-10-31T10:58:58;9.90;;;6.30;;
5285;SDS011;2665;53.112;7.358;2022-10-31T11:01:24;7.83;;;5.93;;
5285;SDS011;2665;53.112;7.358;2022-10-31T11:03:50;11.50;;;5.80;;
5285;SDS011;2665;53.112;7.358;2022-10-31T11:06:19;12.73;;;5.80;;
5285;SDS011;2665;53.112;7.358;2022-10-31T11:08:47;8.57;;;5.37;;
5285;SDS011;2665;53.112;7.358;2022-10-31T11:13:44;9.07;;;4.63;;
5285;SDS011;2665;53.112;7.358;2022-10-31T11:16:31;6.13;;;5.10;;
5285;SDS011;2665;53.112;7.358;2022-10-31T11:19:08;9.30;;;4.63;;
5285;SDS011;2665;53.112;7.358;2022-10-31T11:21:34;9.33;;;5.53;;
5285;SDS011;2665;53.112;7.358;2022-10-31T11:26:30;11.50;;;5.20;;
5285;SDS011;2665;53.112;7.358;2022-10-31T11:28:56;10.23;;;4.70;;
5285;SDS011;2665;53.112;7.358;2022-10-31T11:31:23;6.47;;;4.60;;
5285;SDS011;2665;53.112;7.358;2022-10-31T11:33:52;12.63;;;4.50;;
5285;SDS011;2665;53.112;7.358;2022-10-31T11:36:24;9.00;;;4.43;;
5285;SDS011;2665;53.112;7.358;2022-10-31T11:38:50;7.90;;;4.40;;
5285;SDS011;2665;53.112;7.358;2022-10-31T11:41:18;6.47;;;3.83;;
5285;SDS011;2665;53.112;7.358;2022-10-31T11:44:19;9.20;;;4.37;;
5285;SDS011;2665;53.112;7.358;2022-10-31T11:46:38;8.00;;;5.30;;
5285;SDS011;2665;53.112;7.358;2022-10-31T11:49:04;5.60;;;3.93;;
5285;SDS011;2665;53.112;7.358;2022-10-31T11:51:32;9.33;;;4.70;;
5285;SDS011;2665;53.112;7.358;2022-10-31T11:53:59;7.63;;;4.23;;
5285;SDS011;2665;53.112;7.358;2022-10-31T11:56:27;11.83;;;5.40;;
5285;SDS011;2665;53.112;7.358;2022-10-31T11:58:57;8.70;;;5.20;;
5285;SDS011;2665;53.112;7.358;2022-10-31T12:01:26;12.10;;;3.80;;
5285;SDS011;2665;53.112;7.358;2022-10-31T12:04:09;7.43;;;4.50;;
5285;SDS011;2665;53.112;7.358;2022-10-31T12:06:39;7.40;;;4.60;;
5285;SDS011;2665;53.112;7.358;2022-10-31T12:09:47;5.80;;;4.10;;
5285;SDS011;2665;53.112;7.358;2022-10-31T12:17:28;7.63;;;4.50;;
5285;SDS011;2665;53.112;7.358;2022-10-31T12:25:37;10.50;;;4.10;;
5285;SDS011;2665;53.112;7.358;2022-10-31T12:30:23;10.23;;;5.07;;
5285;SDS011;2665;53.112;7.358;2022-10-31T12:38:12;8.20;;;4.37;;
5285;SDS011;2665;53.112;7.358;2022-10-31T12:40:51;8.53;;;5.33;;
5285;SDS011;2665;53.112;7.358;2022-10-31T12:43:27;6.90;;;4.93;;
5285;SDS011;2665;53.112;7.358;2022-10-31T12:45:57;7.17;;;4.70;;
5285;SDS011;2665;53.112;7.358;2022-10-31T12:56:25;8.20;;;4.60;;
5285;SDS011;2665;53.112;7.358;2022-10-31T12:58:56;8.00;;;4.63;;
5285;SDS011;2665;53.112;7.358;2022-10-31T13:01:27;9.73;;;4.97;;
5285;SDS011;2665;53.112;7.358;2022-10-31T13:06:27;4.70;;;3.70;;
5285;SDS011;2665;53.112;7.358;2022-10-31T13:08:56;7.17;;;4.03;;
5285;SDS011;2665;53.112;7.358;2022-10-31T13:11:34;7.17;;;3.67;;
5285;SDS011;2665;53.112;7.358;2022-10-31T13:14:03;6.17;;;4.10;;
5285;SDS011;2665;53.112;7.358;2022-10-31T13:16:35;5.30;;;3.50;;
5285;SDS011;2665;53.112;7.358;2022-10-31T13:19:05;5.73;;;3.00;;
5285;SDS011;2665;53.112;7.358;2022-10-31T13:24:21;5.80;;;3.57;;
5285;SDS011;2665;53.112;7.358;2022-10-31T13:26:52;8.47;;;4.53;;
5285;SDS011;2665;53.112;7.358;2022-10-31T13:29:29;8.67;;;2.90;;
5285;SDS011;2665;53.112;7.358;2022-10-31T13:31:58;5.13;;;3.13;;
5285;SDS011;2665;53.112;7.358;2022-10-31T13:34:29;7.90;;;3.03;;
5285;SDS011;2665;53.112;7.358;2022-10-31T13:37:17;5.60;;;2.67;;
5285;SDS011;2665;53.112;7.358;2022-10-31T13:44:54;4.17;;;2.20;;
5285;SDS011;2665;53.112;7.358;2022-10-31T13:49:46;4.80;;;2.30;;
5285;SDS011;2665;53.112;7.358;2022-10-31T13:54:48;4.83;;;2.63;;
5285;SDS011;2665;53.112;7.358;2022-10-31T13:57:30;8.83;;;5.63;;
5285;SDS011;2665;53.112;7.358;2022-10-31T14:00:22;6.30;;;3.63;;
5285;SDS011;2665;53.112;7.358;2022-10-31T14:02:51;5.97;;;2.93;;
5285;SDS011;2665;53.112;7.358;2022-10-31T14:07:49;13.13;;;3.40;;
5285;SDS011;2665;53.112;7.358;2022-10-31T14:10:21;4.57;;;2.30;;
5285;SDS011;2665;53.112;7.358;2022-10-31T14:12:48;4.70;;;2.50;;
5285;SDS011;2665;53.112;7.358;2022-10-31T14:15:19;5.13;;;2.70;;
5285;SDS011;2665;53.112;7.358;2022-10-31T14:17:53;3.20;;;2.20;;
5285;SDS011;2665;53.112;7.358;2022-10-31T14:20:37;11.60;;;3.70;;
5285;SDS011;2665;53.112;7.358;2022-10-31T14:23:38;5.03;;;2.43;;
5285;SDS011;2665;53.112;7.358;2022-10-31T14:28:33;3.40;;;1.83;;
5285;SDS011;2665;53.112;7.358;2022-10-31T14:31:00;6.30;;;2.00;;
5285;SDS011;2665;53.112;7.358;2022-10-31T14:33:27;6.00;;;2.30;;
5285;SDS011;2665;53.112;7.358;2022-10-31T14:36:00;3.10;;;1.87;;
5285;SDS011;2665;53.112;7.358;2022-10-31T14:51:36;5.47;;;3.03;;
5285;SDS011;2665;53.112;7.358;2022-10-31T14:54:03;5.80;;;3.50;;
5285;SDS011;2665;53.112;7.358;2022-10-31T14:56:31;4.63;;;2.50;;
5285;SDS011;2665;53.112;7.358;2022-10-31T14:59:00;7.23;;;3.00;;
5285;SDS011;2665;53.112;7.358;2022-10-31T15:03:53;5.23;;;2.70;;
5285;SDS011;2665;53.112;7.358;2022-10-31T15:06:20;7.70;;;3.37;;
5285;SDS011;2665;53.112;7.358;2022-10-31T15:08:51;7.33;;;2.80;;
5285;SDS011;2665;53.112;7.358;2022-10-31T15:11:19;5.10;;;3.27;;
5285;SDS011;2665;53.112;7.358;2022-10-31T15:13:47;8.30;;;3.60;;
5285;SDS011;2665;53.112;7.358;2022-10-31T15:16:14;10.20;;;3.93;;
5285;SDS011;2665;53.112;7.358;2022-10-31T15:18:46;7.90;;;4.23;;
5285;SDS011;2665;53.112;7.358;2022-10-31T15:21:14;4.60;;;3.30;;
5285;SDS011;2665;53.112;7.358;2022-10-31T15:23:40;7.27;;;3.57;;
5285;SDS011;2665;53.112;7.358;2022-10-31T15:26:06;6.37;;;3.43;;
5285;SDS011;2665;53.112;7.358;2022-10-31T15:28:32;6.33;;;4.20;;
5285;SDS011;2665;53.112;7.358;2022-10-31T15:30:59;10.47;;;4.10;;
5285;SDS011;2665;53.112;7.358;2022-10-31T15:33:26;5.00;;;3.67;;
5285;SDS011;2665;53.112;7.358;2022-10-31T15:35:58;7.00;;;4.03;;
5285;SDS011;2665;53.112;7.358;2022-10-31T15:38:25;7.73;;;4.00;;
5285;SDS011;2665;53.112;7.358;2022-10-31T15:41:04;8.27;;;4.83;;
5285;SDS011;2665;53.112;7.358;2022-10-31T15:43:44;7.57;;;4.80;;
5285;SDS011;2665;53.112;7.358;2022-10-31T15:46:10;5.50;;;3.47;;
5285;SDS011;2665;53.112;7.358;2022-10-31T15:48:37;8.40;;;4.97;;
5285;SDS011;2665;53.112;7.358;2022-10-31T15:51:05;5.53;;;3.60;;
5285;SDS011;2665;53.112;7.358;2022-10-31T15:53:41;9.30;;;5.40;;
5285;SDS011;2665;53.112;7.358;2022-10-31T15:56:08;9.50;;;5.07;;
5285;SDS011;2665;53.112;7.358;2022-10-31T15:58:45;8.00;;;6.50;;
5285;SDS011;2665;53.112;7.358;2022-10-31T16:01:21;9.43;;;4.50;;
5285;SDS011;2665;53.112;7.358;2022-10-31T16:03:58;7.07;;;5.30;;
5285;SDS011;2665;53.112;7.358;2022-10-31T16:06:26;7.47;;;4.43;;
5285;SDS011;2665;53.112;7.358;2022-10-31T16:08:52;15.40;;;6.30;;
5285;SDS011;2665;53.112;7.358;2022-10-31T16:11:39;12.00;;;5.90;;
5285;SDS011;2665;53.112;7.358;2022-10-31T16:16:30;9.10;;;5.63;;
5285;SDS011;2665;53.112;7.358;2022-10-31T16:18:56;11.10;;;5.73;;
5285;SDS011;2665;53.112;7.358;2022-10-31T16:21:31;12.43;;;6.50;;
5285;SDS011;2665;53.112;7.358;2022-10-31T16:24:04;11.40;;;7.10;;
5285;SDS011;2665;53.112;7.358;2022-10-31T16:26:50;11.17;;;7.57;;
5285;SDS011;2665;53.112;7.358;2022-10-31T16:29:25;15.07;;;7.67;;
5285;SDS011;2665;53.112;7.358;2022-10-31T16:31:50;11.07;;;6.93;;
5285;SDS011;2665;53.112;7.358;2022-10-31T16:34:20;13.40;;;7.50;;
5285;SDS011;2665;53.112;7.358;2022-10-31T16:36:46;12.20;;;6.50;;
5285;SDS011;2665;53.112;7.358;2022-10-31T16:39:13;14.73;;;7.23;;
5285;SDS011;2665;53.112;7.358;2022-10-31T16:41:40;10.60;;;6.50;;
5285;SDS011;2665;53.112;7.358;2022-10-31T16:44:18;13.70;;;8.80;;
5285;SDS011;2665;53.112;7.358;2022-10-31T16:46:46;15.07;;;10.10;;
5285;SDS011;2665;53.112;7.358;2022-10-31T16:49:12;11.90;;;7.20;;
5285;SDS011;2665;53.112;7.358;2022-10-31T16:51:40;11.47;;;6.43;;
5285;SDS011;2665;53.112;7.358;2022-10-31T16:54:06;15.40;;;8.20;;
5285;SDS011;2665;53.112;7.358;2022-10-31T16:56:34;16.97;;;8.90;;
5285;SDS011;2665;53.112;7.358;2022-10-31T16:59:03;16.57;;;8.50;;
5285;SDS011;2665;53.112;7.358;2022-10-31T17:01:31;14.53;;;7.03;;
5285;SDS011;2665;53.112;7.358;2022-10-31T17:03:57;11.63;;;7.00;;
5285;SDS011;2665;53.112;7.358;2022-10-31T17:06:22;11.80;;;7.10;;
5285;SDS011;2665;53.112;7.358;2022-10-31T17:08:52;13.13;;;7.40;;
5285;SDS011;2665;53.112;7.358;2022-10-31T17:11:19;13.70;;;7.83;;
5285;SDS011;2665;53.112;7.358;2022-10-31T17:13:47;16.90;;;8.63;;
5285;SDS011;2665;53.112;7.358;2022-10-31T17:16:13;12.73;;;8.10;;
5285;SDS011;2665;53.112;7.358;2022-10-31T17:18:39;15.47;;;6.60;;
5285;SDS011;2665;53.112;7.358;2022-10-31T17:21:05;13.63;;;6.37;;
5285;SDS011;2665;53.112;7.358;2022-10-31T17:23:31;17.13;;;7.93;;
5285;SDS011;2665;53.112;7.358;2022-10-31T17:25:57;19.30;;;6.00;;
5285;SDS011;2665;53.112;7.358;2022-10-31T17:28:23;18.30;;;9.23;;
5285;SDS011;2665;53.112;7.358;2022-10-31T17:30:50;12.10;;;7.73;;
5285;SDS011;2665;53.112;7.358;2022-10-31T17:33:19;11.80;;;7.93;;
5285;SDS011;2665;53.112;7.358;2022-10-31T17:35:44;11.13;;;6.93;;
5285;SDS011;2665;53.112;7.358;2022-10-31T17:38:10;13.83;;;8.00;;
5285;SDS011;2665;53.112;7.358;2022-10-31T17:40:37;14.60;;;8.60;;
5285;SDS011;2665;53.112;7.358;2022-10-31T17:43:03;8.93;;;5.77;;